createdAt,value
2022-09-15T00:00:52.578Z,15.82
2022-09-15T00:03:20.389Z,15.72
2022-09-15T00:05:47.482Z,15.75
2022-09-15T00:08:14.562Z,16.04
2022-09-15T00:10:49.998Z,16.01
2022-09-15T00:13:17.187Z,15.98
2022-09-15T00:15:44.283Z,16.21
2022-09-15T00:18:11.218Z,15.98
2022-09-15T00:20:45.709Z,16.11
2022-09-15T00:23:14.257Z,15.77
2022-09-15T00:25:48.982Z,15.86
2022-09-15T00:28:17.806Z,15.42
2022-09-15T00:30:46.996Z,15.46
2022-09-15T00:33:14.927Z,15.94
2022-09-15T00:35:44.263Z,16.01
2022-09-15T00:38:12.386Z,16.07
2022-09-15T00:40:47.615Z,15.97
2022-09-15T00:43:15.750Z,15.73
2022-09-15T00:45:42.428Z,15.63
2022-09-15T00:48:15.747Z,15.57
2022-09-15T00:50:45.302Z,15.46
2022-09-15T00:53:14.042Z,15.43
2022-09-15T00:55:47.962Z,15.36
2022-09-15T00:58:22.738Z,15.30
2022-09-15T01:01:08.542Z,15.33
2022-09-15T01:03:36.690Z,15.28
2022-09-15T01:06:12.355Z,15.24
2022-09-15T01:08:52.139Z,15.23
2022-09-15T01:11:19.427Z,15.12
2022-09-15T01:13:46.130Z,15.32
2022-09-15T01:16:41.300Z,15.29
2022-09-15T01:19:23.007Z,15.26
2022-09-15T01:22:00.213Z,15.30
2022-09-15T01:24:44.823Z,15.40
2022-09-15T01:27:30.928Z,15.47
2022-09-15T01:30:12.598Z,15.32
2022-09-15T01:33:03.996Z,15.36
2022-09-15T01:35:33.439Z,15.71
2022-09-15T01:38:55.806Z,15.54
2022-09-15T01:41:28.590Z,15.31
2022-09-15T01:44:08.946Z,15.43
2022-09-15T01:46:47.154Z,15.43
2022-09-15T01:49:23.653Z,15.39
2022-09-15T01:51:53.174Z,15.49
2022-09-15T01:54:28.076Z,15.55
2022-09-15T01:56:54.686Z,15.07
2022-09-15T01:59:21.494Z,15.38
2022-09-15T02:01:53.744Z,15.29
2022-09-15T02:04:38.637Z,15.22
2022-09-15T02:07:47.758Z,15.07
2022-09-15T02:10:21.894Z,14.74
2022-09-15T02:12:54.015Z,14.69
2022-09-15T02:15:36.806Z,14.61
2022-09-15T02:18:08.410Z,14.51
2022-09-15T02:20:38.865Z,14.43
2022-09-15T02:23:12.702Z,14.51
2022-09-15T02:25:48.023Z,14.47
2022-09-15T02:28:18.569Z,14.37
2022-09-15T02:30:46.717Z,14.49
2022-09-15T02:33:19.907Z,14.57
2022-09-15T02:35:47.493Z,14.66
2022-09-15T02:38:15.067Z,14.12
2022-09-15T02:40:43.689Z,13.98
2022-09-15T02:43:13.759Z,14.21
2022-09-15T02:45:40.860Z,14.09
2022-09-15T02:48:10.753Z,14.10
2022-09-15T02:50:38.199Z,14.06
2022-09-15T02:53:05.378Z,14.03
2022-09-15T02:55:32.194Z,13.96
2022-09-15T02:57:59.631Z,14.28
2022-09-15T03:00:28.290Z,13.96
2022-09-15T03:02:56.052Z,13.98
2022-09-15T03:05:29.001Z,14.00
2022-09-15T03:07:56.330Z,14.15
2022-09-15T03:10:24.656Z,13.78
2022-09-15T03:12:53.667Z,14.08
2022-09-15T03:15:23.417Z,13.85
2022-09-15T03:17:50.455Z,13.92
2022-09-15T03:20:20.190Z,13.72
2022-09-15T03:22:47.805Z,13.60
2022-09-15T03:25:14.574Z,13.94
2022-09-15T03:27:42.319Z,13.80
2022-09-15T03:30:10.520Z,13.80
2022-09-15T03:32:37.267Z,13.78
2022-09-15T03:35:04.946Z,13.85
2022-09-15T03:37:31.558Z,13.79
2022-09-15T03:39:58.326Z,13.87
2022-09-15T03:42:25.039Z,13.72
2022-09-15T03:44:51.674Z,13.75
2022-09-15T03:47:18.225Z,13.68
2022-09-15T03:49:44.787Z,13.79
2022-09-15T03:52:12.194Z,13.78
2022-09-15T03:54:38.784Z,13.78
2022-09-15T03:57:05.555Z,13.74
2022-09-15T03:59:32.142Z,13.89
2022-09-15T04:01:58.877Z,13.67
2022-09-15T04:04:25.642Z,13.64
2022-09-15T04:06:53.117Z,13.64
2022-09-15T04:09:21.013Z,13.84
2022-09-15T04:11:47.897Z,13.79
2022-09-15T04:14:14.571Z,13.75
2022-09-15T04:16:41.185Z,13.67
2022-09-15T04:19:07.945Z,13.59
2022-09-15T04:21:34.690Z,13.54
2022-09-15T04:24:01.462Z,13.65
2022-09-15T04:26:31.388Z,13.62
2022-09-15T04:29:03.057Z,13.82
2022-09-15T04:31:31.639Z,13.28
2022-09-15T04:33:58.366Z,13.60
2022-09-15T04:36:27.383Z,13.34
2022-09-15T04:38:55.259Z,13.33
2022-09-15T04:41:22.371Z,13.36
2022-09-15T04:43:49.059Z,13.29
2022-09-15T04:46:16.706Z,13.24
2022-09-15T04:48:45.382Z,13.15
2022-09-15T04:51:17.802Z,13.20
2022-09-15T04:53:44.953Z,13.20
2022-09-15T04:56:14.818Z,13.33
2022-09-15T04:58:46.767Z,13.21
2022-09-15T05:01:22.678Z,13.20
2022-09-15T05:03:49.660Z,13.11
2022-09-15T05:06:18.814Z,13.20
2022-09-15T05:08:52.922Z,13.11
2022-09-15T05:11:19.965Z,13.31
2022-09-15T05:13:47.873Z,13.55
2022-09-15T05:16:25.628Z,13.64
2022-09-15T05:18:54.254Z,13.72
2022-09-15T05:21:22.527Z,13.52
2022-09-15T05:23:51.753Z,13.22
2022-09-15T05:26:21.622Z,13.12
2022-09-15T05:28:48.206Z,13.15
2022-09-15T05:31:23.889Z,13.44
2022-09-15T05:33:52.591Z,13.45
2022-09-15T05:36:21.204Z,13.41
2022-09-15T05:38:47.807Z,13.58
2022-09-15T05:41:19.536Z,13.56
2022-09-15T05:43:47.503Z,13.30
2022-09-15T05:46:15.419Z,13.04
2022-09-15T05:48:45.044Z,13.25
2022-09-15T05:51:11.982Z,13.04
2022-09-15T05:53:38.942Z,13.18
2022-09-15T05:56:09.505Z,13.22
2022-09-15T05:58:36.154Z,13.27
2022-09-15T06:01:11.969Z,13.37
2022-09-15T06:03:38.774Z,13.30
2022-09-15T06:06:06.304Z,13.29
2022-09-15T06:08:44.223Z,13.30
2022-09-15T06:11:13.801Z,13.45
2022-09-15T06:13:41.276Z,13.49
2022-09-15T06:16:10.503Z,13.41
2022-09-15T06:18:38.928Z,13.43
2022-09-15T06:21:20.042Z,13.93
2022-09-15T06:23:50.698Z,13.93
2022-09-15T06:26:19.149Z,13.75
2022-09-15T06:28:51.418Z,14.19
2022-09-15T06:31:18.964Z,13.91
2022-09-15T06:33:53.978Z,13.62
2022-09-15T06:36:22.728Z,14.14
2022-09-15T06:38:49.812Z,14.25
2022-09-15T06:41:16.733Z,14.41
2022-09-15T06:43:43.848Z,14.53
2022-09-15T06:46:19.729Z,14.75
2022-09-15T06:48:48.548Z,14.85
2022-09-15T06:51:16.931Z,14.79
2022-09-15T06:53:44.049Z,14.69
2022-09-15T06:56:22.158Z,14.59
2022-09-15T06:58:49.348Z,14.79
2022-09-15T07:01:25.297Z,14.79
2022-09-15T07:03:52.668Z,14.88
2022-09-15T07:06:19.439Z,15.16
2022-09-15T07:08:46.653Z,15.17
2022-09-15T07:11:14.194Z,15.09
2022-09-15T07:13:41.499Z,15.18
2022-09-15T07:16:11.464Z,15.42
2022-09-15T07:18:43.009Z,14.89
2022-09-15T07:21:18.428Z,15.33
2022-09-15T07:23:45.700Z,15.21
2022-09-15T07:26:20.733Z,15.04
2022-09-15T07:28:50.956Z,15.24
2022-09-15T07:31:20.523Z,15.07
2022-09-15T07:33:47.375Z,15.23
2022-09-15T07:36:14.956Z,15.51
2022-09-15T07:38:46.668Z,15.41
2022-09-15T07:41:24.400Z,15.49
2022-09-15T07:43:53.437Z,15.18
2022-09-15T07:46:21.847Z,15.09
2022-09-15T07:48:50.557Z,15.43
2022-09-15T07:51:17.788Z,15.44
2022-09-15T07:53:46.501Z,15.25
2022-09-15T07:56:13.207Z,15.41
2022-09-15T07:58:39.834Z,15.23
2022-09-15T08:01:11.100Z,15.56
2022-09-15T08:03:48.956Z,15.68
2022-09-15T08:06:18.115Z,15.76
2022-09-15T08:08:45.082Z,15.73
2022-09-15T08:11:18.510Z,15.68
2022-09-15T08:13:46.589Z,15.79
2022-09-15T08:16:15.322Z,15.83
2022-09-15T08:18:43.198Z,15.74
2022-09-15T08:21:15.999Z,15.98
2022-09-15T08:23:43.495Z,15.56
2022-09-15T08:26:14.098Z,15.64
2022-09-15T08:28:41.359Z,15.68
2022-09-15T08:31:10.127Z,16.16
2022-09-15T08:33:38.901Z,16.28
2022-09-15T08:36:13.681Z,16.27
2022-09-15T08:38:42.857Z,16.31
2022-09-15T08:41:12.262Z,16.41
2022-09-15T08:44:17.755Z,16.60
2022-09-15T08:47:00.630Z,16.54
2022-09-15T08:49:51.489Z,16.45
2022-09-15T08:52:35.542Z,16.66
2022-09-15T08:55:12.078Z,16.48
2022-09-15T08:57:38.857Z,16.63
2022-09-15T09:00:13.450Z,16.28
2022-09-15T09:02:55.951Z,16.74
2022-09-15T09:05:29.514Z,16.59
2022-09-15T09:08:33.954Z,16.98
2022-09-15T09:11:28.715Z,16.96
2022-09-15T09:14:18.731Z,16.86
2022-09-15T09:17:09.870Z,16.35
2022-09-15T09:20:14.113Z,16.26
2022-09-15T09:22:43.975Z,16.08
2022-09-15T09:25:26.589Z,16.20
2022-09-15T09:27:54.929Z,16.20
2022-09-15T09:30:24.122Z,16.50
2022-09-15T09:33:30.284Z,16.60
2022-09-15T09:36:01.090Z,16.46
2022-09-15T09:38:37.889Z,15.86
2022-09-15T09:41:25.882Z,16.44
2022-09-15T09:43:55.546Z,16.64
2022-09-15T09:46:22.365Z,16.88
2022-09-15T09:48:54.835Z,17.14
2022-09-15T09:51:31.944Z,17.23
2022-09-15T09:54:11.714Z,17.00
2022-09-15T09:56:39.870Z,17.21
2022-09-15T09:59:42.430Z,17.17
2022-09-15T10:02:11.831Z,17.51
2022-09-15T10:04:39.769Z,17.59
2022-09-15T10:07:07.801Z,17.64
2022-09-15T10:09:34.654Z,18.04
2022-09-15T10:12:04.043Z,17.86
2022-09-15T10:14:38.519Z,18.44
2022-09-15T10:17:13.026Z,18.21
2022-09-15T10:19:55.461Z,18.27
2022-09-15T10:22:31.225Z,17.91
2022-09-15T10:25:00.512Z,17.64
2022-09-15T10:27:35.561Z,18.36
2022-09-15T10:30:14.572Z,17.86
2022-09-15T10:32:43.119Z,17.12
2022-09-15T10:35:20.593Z,17.77
2022-09-15T10:38:03.841Z,17.88
2022-09-15T10:40:43.859Z,17.52
2022-09-15T10:43:22.509Z,17.71
2022-09-15T10:45:59.323Z,17.73
2022-09-15T10:49:00.651Z,17.94
2022-09-15T10:51:35.045Z,17.89
2022-09-15T10:54:04.282Z,17.80
2022-09-15T10:56:36.833Z,17.85
2022-09-15T10:59:22.299Z,17.67
2022-09-15T11:02:07.841Z,17.55
2022-09-15T11:05:11.551Z,17.44
2022-09-15T11:07:44.702Z,17.53
2022-09-15T11:10:20.128Z,17.61
2022-09-15T11:12:56.182Z,17.80
2022-09-15T11:15:48.598Z,17.80
2022-09-15T11:18:31.642Z,17.78
2022-09-15T11:21:21.363Z,18.10
2022-09-15T11:23:51.201Z,18.19
2022-09-15T11:26:43.206Z,18.00
2022-09-15T11:29:20.101Z,18.34
2022-09-15T11:31:51.517Z,17.94
2022-09-15T11:34:34.652Z,18.02
2022-09-15T11:37:10.601Z,17.75
2022-09-15T11:39:45.457Z,17.77
2022-09-15T11:42:20.429Z,17.63
2022-09-15T11:44:48.392Z,17.91
2022-09-15T11:47:39.771Z,18.08
2022-09-15T11:50:29.410Z,18.23
2022-09-15T11:53:21.870Z,17.97
2022-09-15T11:55:53.822Z,17.85
2022-09-15T11:58:25.999Z,18.07
2022-09-15T12:01:10.520Z,17.55
2022-09-15T12:03:59.474Z,18.31
2022-09-15T12:06:31.915Z,18.00
2022-09-15T12:09:06.227Z,18.36
2022-09-15T12:11:41.265Z,18.19
2022-09-15T12:14:15.204Z,18.31
2022-09-15T12:16:43.271Z,18.76
2022-09-15T12:19:33.434Z,18.94
2022-09-15T12:22:17.705Z,19.05
2022-09-15T12:24:53.584Z,18.95
2022-09-15T12:27:21.499Z,19.22
2022-09-15T12:29:53.779Z,19.36
2022-09-15T12:32:29.254Z,19.08
2022-09-15T12:34:55.934Z,18.85
2022-09-15T12:37:24.372Z,19.15
2022-09-15T12:39:51.675Z,19.28
2022-09-15T12:42:22.019Z,19.01
2022-09-15T12:45:02.631Z,19.08
2022-09-15T12:47:34.731Z,19.71
2022-09-15T12:50:08.393Z,19.49
2022-09-15T12:52:44.631Z,19.60
2022-09-15T12:55:20.002Z,19.51
2022-09-15T12:57:52.653Z,18.92
2022-09-15T13:00:33.608Z,19.45
2022-09-15T13:03:01.847Z,19.40
2022-09-15T13:05:47.246Z,18.78
2022-09-15T13:08:28.847Z,18.89
2022-09-15T13:11:16.774Z,18.95
2022-09-15T13:13:50.223Z,18.85
2022-09-15T13:16:56.613Z,18.92
2022-09-15T13:19:35.893Z,19.22
2022-09-15T13:22:11.338Z,19.03
2022-09-15T13:25:10.638Z,19.26
2022-09-15T13:27:42.081Z,19.41
2022-09-15T13:30:09.362Z,19.54
2022-09-15T13:33:15.737Z,19.55
2022-09-15T13:36:06.114Z,19.55
2022-09-15T13:39:09.925Z,19.08
2022-09-15T13:41:36.540Z,18.99
2022-09-15T13:44:06.362Z,19.08
2022-09-15T13:46:44.976Z,18.95
2022-09-15T13:49:27.590Z,18.72
2022-09-15T13:52:00.783Z,18.56
2022-09-15T13:54:27.398Z,18.44
2022-09-15T13:56:58.690Z,18.00
2022-09-15T13:59:30.266Z,18.38
2022-09-15T14:01:59.976Z,18.40
2022-09-15T14:04:31.602Z,18.44
2022-09-15T14:07:01.415Z,17.69
2022-09-15T14:09:43.188Z,18.27
2022-09-15T14:12:12.319Z,18.43
2022-09-15T14:14:43.610Z,18.51
2022-09-15T14:17:22.471Z,18.18
2022-09-15T14:19:51.598Z,18.49
2022-09-15T14:22:18.405Z,18.22
2022-09-15T14:24:44.992Z,18.43
2022-09-15T14:27:12.935Z,18.07
2022-09-15T14:29:43.755Z,18.57
2022-09-15T14:32:16.047Z,18.51
2022-09-15T14:34:44.363Z,19.01
2022-09-15T14:37:34.155Z,18.89
2022-09-15T14:40:12.543Z,19.21
2022-09-15T14:42:41.991Z,19.78
2022-09-15T14:48:01.230Z,19.79
2022-09-15T14:50:32.820Z,19.42
2022-09-15T14:53:09.895Z,19.72
2022-09-15T14:56:07.807Z,18.85
2022-09-15T14:58:41.293Z,19.37
2022-09-15T15:01:22.997Z,18.88
2022-09-15T15:03:57.060Z,18.89
2022-09-15T15:06:34.069Z,18.98
2022-09-15T15:09:06.899Z,18.62
2022-09-15T15:11:35.843Z,18.41
2022-09-15T15:14:09.661Z,18.84
2022-09-15T15:16:36.591Z,18.66
2022-09-15T15:19:03.348Z,18.73
2022-09-15T15:21:41.424Z,18.91
2022-09-15T15:24:09.605Z,18.88
2022-09-15T15:26:38.943Z,18.81
2022-09-15T15:29:09.079Z,18.63
2022-09-15T15:31:40.005Z,18.57
2022-09-15T15:34:21.257Z,18.62
2022-09-15T15:36:48.422Z,18.66
2022-09-15T15:39:27.525Z,18.59
2022-09-15T15:42:02.551Z,18.51
2022-09-15T15:44:31.052Z,18.86
2022-09-15T15:47:02.390Z,18.76
2022-09-15T15:49:31.807Z,18.67
2022-09-15T15:52:00.674Z,18.52
2022-09-15T15:54:27.639Z,18.59
2022-09-15T15:56:54.606Z,18.53
2022-09-15T15:59:21.460Z,18.32
2022-09-15T16:01:51.330Z,18.38
2022-09-15T16:04:18.354Z,18.24
2022-09-15T16:06:45.821Z,18.13
2022-09-15T16:09:14.641Z,17.96
2022-09-15T16:11:42.991Z,18.07
2022-09-15T16:14:13.456Z,18.24
2022-09-15T16:16:40.784Z,18.07
2022-09-15T16:19:08.421Z,18.09
2022-09-15T16:21:38.746Z,18.09
2022-09-15T16:24:07.050Z,17.62
2022-09-15T16:26:35.542Z,18.00
2022-09-15T16:29:02.511Z,17.53
2022-09-15T16:31:30.057Z,17.87
2022-09-15T16:33:56.643Z,17.80
2022-09-15T16:36:23.561Z,17.93
2022-09-15T16:38:50.111Z,17.92
2022-09-15T16:41:19.270Z,17.92
2022-09-15T16:43:46.832Z,17.78
2022-09-15T16:46:14.548Z,17.63
2022-09-15T16:48:43.115Z,17.49
2022-09-15T16:51:31.389Z,17.66
2022-09-15T16:53:58.711Z,17.60
2022-09-15T16:56:25.509Z,17.49
2022-09-15T16:58:58.782Z,17.65
2022-09-15T17:01:27.401Z,17.59
2022-09-15T17:03:54.121Z,17.59
2022-09-15T17:06:21.955Z,17.32
2022-09-15T17:08:48.602Z,17.47
2022-09-15T17:11:18.185Z,17.46
2022-09-15T17:13:45.811Z,17.35
2022-09-15T17:16:15.016Z,17.58
2022-09-15T17:18:41.895Z,17.51
2022-09-15T17:21:12.377Z,17.49
2022-09-15T17:23:47.949Z,17.48
2022-09-15T17:26:20.003Z,17.54
2022-09-15T17:28:46.794Z,17.57
2022-09-15T17:31:16.354Z,17.67
2022-09-15T17:33:43.704Z,17.60
2022-09-15T17:36:11.172Z,17.63
2022-09-15T17:38:40.545Z,17.53
2022-09-15T17:41:12.951Z,17.45
2022-09-15T17:43:39.504Z,17.65
2022-09-15T17:46:06.222Z,17.71
2022-09-15T17:48:32.924Z,17.65
2022-09-15T17:51:01.424Z,17.68
2022-09-15T17:53:28.147Z,17.65
2022-09-15T17:55:55.646Z,17.64
2022-09-15T17:58:24.833Z,17.50
2022-09-15T18:00:52.235Z,17.63
2022-09-15T18:03:29.545Z,17.16
2022-09-15T18:05:59.267Z,17.36
2022-09-15T18:08:27.311Z,17.32
2022-09-15T18:10:54.574Z,17.17
2022-09-15T18:13:23.655Z,17.27
2022-09-15T18:15:50.747Z,17.24
2022-09-15T18:18:22.290Z,17.45
2022-09-15T18:20:49.801Z,17.40
2022-09-15T18:23:19.682Z,17.15
2022-09-15T18:25:49.381Z,17.30
2022-09-15T18:28:17.250Z,17.42
2022-09-15T18:30:46.532Z,17.12
2022-09-15T18:33:24.480Z,17.26
2022-09-15T18:35:53.749Z,17.12
2022-09-15T18:38:21.731Z,17.15
2022-09-15T18:40:50.539Z,16.95
2022-09-15T18:43:17.591Z,16.80
2022-09-15T18:45:44.385Z,16.76
2022-09-15T18:48:13.071Z,16.70
2022-09-15T18:50:41.181Z,16.66
2022-09-15T18:53:08.266Z,16.57
2022-09-15T18:55:35.101Z,16.56
2022-09-15T18:58:02.503Z,16.89
2022-09-15T19:00:29.426Z,16.59
2022-09-15T19:03:01.307Z,16.77
2022-09-15T19:05:29.825Z,16.74
2022-09-15T19:07:57.147Z,16.62
2022-09-15T19:10:24.933Z,17.01
2022-09-15T19:12:51.669Z,17.17
2022-09-15T19:15:23.517Z,16.79
2022-09-15T19:17:50.415Z,17.04
2022-09-15T19:20:17.438Z,17.09
2022-09-15T19:22:44.007Z,17.06
2022-09-15T19:25:11.384Z,17.07
2022-09-15T19:27:39.409Z,16.87
2022-09-15T19:30:07.240Z,17.05
2022-09-15T19:32:33.939Z,17.11
2022-09-15T19:35:00.713Z,17.07
2022-09-15T19:37:27.300Z,17.15
2022-09-15T19:39:54.673Z,17.08
2022-09-15T19:42:21.586Z,16.92
2022-09-15T19:44:49.502Z,16.76
2022-09-15T19:47:16.433Z,16.82
2022-09-15T19:49:42.997Z,16.93
2022-09-15T19:52:09.698Z,16.87
2022-09-15T19:54:36.418Z,16.80
2022-09-15T19:57:04.074Z,16.64
2022-09-15T19:59:31.823Z,16.65
2022-09-15T20:02:00.038Z,16.72
2022-09-15T20:04:27.727Z,16.54
2022-09-15T20:06:54.422Z,16.37
2022-09-15T20:09:21.002Z,16.26
2022-09-15T20:11:47.738Z,16.12
2022-09-15T20:14:16.408Z,16.61
2022-09-15T20:16:43.354Z,16.28
2022-09-15T20:19:10.045Z,16.29
2022-09-15T20:21:53.752Z,16.52
2022-09-15T20:24:21.594Z,16.64
2022-09-15T20:26:48.585Z,16.57
2022-09-15T20:29:15.887Z,16.43
2022-09-15T20:31:42.511Z,16.19
2022-09-15T20:34:09.265Z,16.47
2022-09-15T20:36:38.343Z,16.38
2022-09-15T20:39:09.208Z,16.44
2022-09-15T20:41:36.858Z,16.49
2022-09-15T20:44:05.120Z,16.60
2022-09-15T20:46:31.774Z,16.41
2022-09-15T20:48:58.459Z,16.49
2022-09-15T20:51:28.118Z,16.27
2022-09-15T20:53:56.146Z,16.33
2022-09-15T20:56:25.493Z,16.32
2022-09-15T20:58:54.077Z,16.17
2022-09-15T21:01:26.116Z,16.28
2022-09-15T21:03:53.360Z,16.33
2022-09-15T21:06:22.574Z,16.41
2022-09-15T21:08:49.990Z,16.30
2022-09-15T21:11:19.251Z,16.42
2022-09-15T21:13:47.088Z,16.35
2022-09-15T21:16:22.988Z,16.11
2022-09-15T21:18:51.777Z,16.24
2022-09-15T21:21:23.486Z,16.37
2022-09-15T21:23:52.938Z,16.10
2022-09-15T21:26:21.627Z,16.42
2022-09-15T21:28:48.713Z,16.41
2022-09-15T21:31:21.152Z,16.46
2022-09-15T21:33:48.808Z,16.54
2022-09-15T21:36:24.497Z,16.41
2022-09-15T21:38:53.292Z,16.45
2022-09-15T21:41:23.024Z,16.27
2022-09-15T21:43:55.279Z,16.13
2022-09-15T21:46:24.702Z,16.11
2022-09-15T21:48:51.701Z,16.03
2022-09-15T21:51:24.529Z,15.71
2022-09-15T21:53:53.734Z,15.51
2022-09-15T21:56:21.317Z,15.45
2022-09-15T21:58:48.368Z,15.56
2022-09-15T22:01:20.617Z,15.54
2022-09-15T22:03:52.113Z,15.38
2022-09-15T22:06:20.594Z,15.60
2022-09-15T22:09:41.112Z,15.54
2022-09-15T22:12:08.177Z,15.43
2022-09-15T22:14:34.855Z,15.57
2022-09-15T22:17:01.401Z,15.52
2022-09-15T22:19:29.203Z,15.50
2022-09-15T22:21:55.716Z,15.42
2022-09-15T22:24:22.209Z,15.21
2022-09-15T22:26:48.888Z,15.26
2022-09-15T22:29:15.426Z,14.74
2022-09-15T22:31:42.321Z,14.66
2022-09-15T22:34:09.129Z,14.75
2022-09-15T22:36:35.907Z,14.63
2022-09-15T22:39:05.034Z,14.58
2022-09-15T22:41:34.930Z,14.54
2022-09-15T22:44:03.119Z,14.53
2022-09-15T22:46:29.782Z,14.54
2022-09-15T22:48:56.377Z,14.45
2022-09-15T22:51:23.180Z,14.43
2022-09-15T22:53:53.657Z,14.34
2022-09-15T22:56:20.232Z,14.40
2022-09-15T22:58:48.918Z,14.45
2022-09-15T23:01:20.870Z,14.36
2022-09-15T23:03:53.026Z,14.18
2022-09-15T23:06:21.076Z,14.27
2022-09-15T23:08:56.182Z,14.40
2022-09-15T23:11:23.502Z,14.34
2022-09-15T23:13:50.312Z,14.20
2022-09-15T23:16:17.120Z,14.14
2022-09-15T23:18:44.162Z,14.00
2022-09-15T23:21:11.826Z,14.04
2022-09-15T23:23:40.391Z,14.04
2022-09-15T23:26:09.980Z,13.92
2022-09-15T23:28:38.888Z,14.07
2022-09-15T23:31:05.809Z,14.14
2022-09-15T23:33:32.840Z,14.14
2022-09-15T23:36:04.172Z,14.06
2022-09-15T23:38:31.096Z,13.92
2022-09-15T23:40:57.937Z,14.15
2022-09-15T23:43:24.507Z,14.22
2022-09-15T23:45:51.229Z,14.18
2022-09-15T23:48:17.902Z,13.94
2022-09-15T23:50:44.580Z,13.94
2022-09-15T23:53:11.311Z,13.94
2022-09-15T23:55:37.960Z,13.83
2022-09-15T23:58:05.304Z,13.76
